Boyd Deep Canyon Reserve, California Weather observations

Data are for 10 minute period ending at time listed.
 Day   Time   Solar   Ave.   Ave.  Ave.  Vector  Max.   Baro.   Total    
  of    of     Rad.   Air    Rel.  Wind   Wind   Wind  Press.  Precip.   
Year   Day            Temp.  Hum.  Speed  Dir.   Gust                    
2017   (PST)  Kw/m2    F      %     mph   deg.    mph    mb.     in.     
-------------------------------------------------------------------------
 267    0:00   0.00   70.5    20   11.3   203    14.5   974.0    0.00 
 267    0:10   0.00   70.4    20   11.1   203    14.3   974.0    0.00 
 267    0:20   0.00   70.4    19   10.6   201    15.4   974.0    0.00 
 267    0:30   0.00   70.4    19   10.8   207    14.7   974.1    0.00 
 267    0:40   0.00   70.2    18   10.7   207    15.2   974.1    0.00 
 267    0:50   0.00   70.2    18   12.4   210    16.1   974.2    0.00 
 267    1:00   0.00   70.1    18   11.1   210    14.1   974.3    0.00 
 267    1:10   0.00   69.9    18   10.8   202    13.9   974.3    0.00 
 267    1:20   0.00   69.9    17   11.5   199    15.9   974.3    0.00 
 267    1:30   0.00   69.8    17    9.7   202    12.9   974.3    0.00 
 267    1:40   0.00   69.7    17   10.2   200    15.1   974.3    0.00 
 267    1:50   0.00   69.8    16   10.1   208    14.1   974.4    0.00 
 267    2:00   0.00   69.7    16   11.9   215    15.9   974.4    0.00 
 267    2:10   0.00   69.3    16   11.5   218    16.4   974.4    0.00 
 267    2:20   0.00   69.1    16   10.8   231    15.9   974.3    0.00 
 267    2:30   0.00   69.4    15   11.1   224    15.6   974.4    0.00 
 267    2:40   0.00   69.2    15   11.5   223    17.5   974.4    0.00 
 267    2:50   0.00   69.1    15   12.4   214    17.2   974.4    0.00 
 267    3:00   0.00   69.2    14   12.9   205    16.3   974.3    0.00 
 267    3:10   0.00   69.1    14   11.8   198    14.8   974.3    0.00 
 267    3:20   0.00   69.1    14   12.0   204    16.0   974.3    0.00 
 267    3:30   0.00   69.0    14   11.0   213    15.2   974.3    0.00 
 267    3:40   0.00   68.9    14   12.3   218    17.4   974.4    0.00 
 267    3:50   0.00   68.8    14   12.8   215    16.8   974.4    0.00 
 267    4:00   0.00   68.7    14   12.4   213    16.1   974.4    0.00 
 267    4:10   0.00   68.8    14   11.7   216    17.5   974.5    0.00 
 267    4:20   0.00   68.6    14   12.5   210    16.2   974.6    0.00 
 267    4:30   0.00   68.7    14   13.0   223    18.5   974.7    0.00 
 267    4:40   0.00   68.4    14   11.7   220    16.1   974.9    0.00 
 267    4:50   0.00   68.4    14   11.9   209    15.9   975.0    0.00 
 267    5:00   0.00   68.2    14   12.2   206    16.9   975.1    0.00 
 267    5:10   0.00   68.1    14   11.5   206    15.8   975.2    0.00 
 267    5:20   0.00   68.1    14   11.4   204    15.7   975.3    0.00 
 267    5:30   0.00   68.1    14   11.7   222    16.3   975.5    0.00 
 267    5:40   0.00   67.8    14   11.7   203    15.4   975.7    0.00 
 267    5:50   0.01   68.0    14   12.5   201    15.8   975.8    0.00 
 267    6:00   0.01   68.1    14   11.3   200    16.2   975.9    0.00 
 267    6:10   0.01   67.9    14    9.1   201    13.6   976.0    0.00 
 267    6:20   0.04   68.0    14    8.2   192    10.6   976.1    0.00 
 267    6:30   0.13   69.3    14    8.9   198    13.6   976.2    0.00 
 267    6:40   0.16   70.1    13    7.8   187    11.7   976.3    0.00 
 267    6:50   0.20   70.8    13    7.0   178    11.5   976.4    0.00 
 267    7:00   0.23   71.9    13    5.0   191     8.7   976.6    0.00 
 267    7:10   0.27   74.1    12    1.7   219     3.4   976.7    0.00 
 267    7:20   0.30   75.6    12    0.8     6     5.0   976.8    0.00 
 267    7:30   0.34   75.1    12    3.3     8     6.9   976.9    0.00 
 267    7:40   0.38   75.0    12    3.0    21     6.7   977.0    0.00 
 267    7:50   0.41   74.8    12    4.2    28     7.0   977.0    0.00 
 267    8:00   0.45   74.7    12    4.8    33     7.4   977.1    0.00 
 267    8:10   0.48   74.8    12    5.5    26     8.8   977.2    0.00 
 267    8:20   0.51   75.0    12    5.7    21     8.3   977.2    0.00 
 267    8:30   0.54   75.1    12    5.5    37     8.1   977.3    0.00 
 267    8:40   0.57   75.6    12    6.5    22    10.1   977.3    0.00 
 267    8:50   0.60   76.0    12    3.8    18     8.3   977.3    0.00 
 267    9:00   0.63   76.0    12    5.3    42     8.0   977.3    0.00 
 267    9:10   0.66   76.5    12    3.8    25     7.2   977.3    0.00 
 267    9:20   0.68   76.6    12    3.5   360     8.3   977.4    0.00 
 267    9:30   0.70   76.9    12    5.3   360    11.2   977.4    0.00 
 267    9:40   0.73   76.9    12    5.8     2    12.3   977.4    0.00 
 267    9:50   0.74   77.3    12    3.7   346    11.2   977.4    0.00 
 267   10:00   0.77   78.2    12    6.8   356    12.6   977.5    0.00 
 267   10:10   0.78   77.8    12    7.2   350    12.3   977.4    0.00 
 267   10:20   0.80   78.2    11    7.0     4    13.4   977.3    0.00 
 267   10:30   0.81   78.3    11    6.7     0    12.2   977.3    0.00 
 267   10:40   0.82   78.3    11    5.2    14     9.3   977.1    0.00 
 267   10:50   0.84   78.7    11    4.9    20     8.4   977.0    0.00 
 267   11:00   0.84   78.8    11    6.6   357    13.1   977.1    0.00 
 267   11:10   0.85   78.8    11    7.0    10    12.6   977.0    0.00 
 267   11:20   0.85   79.0    11    4.5     8    10.6   976.9    0.00 
 267   11:30   0.85   79.7    10    6.3   356    11.5   976.8    0.00 
 267   11:40   0.85   80.0    10    3.4   354     8.0   976.7    0.00 
 267   11:50   0.85   80.4    10    4.2   328    10.0   976.6    0.00 
 267   12:00   0.85   79.9    11    3.5   356    10.6   976.5    0.00 
 267   12:10   0.83   80.6    10    4.1    51     7.7   976.3    0.00 
 267   12:20   0.84   80.6    10    7.9    21    11.6   976.2    0.00 
 267   12:30   0.84   81.1    10    2.8   315     8.3   976.0    0.00 
 267   12:40   0.83   81.4    10    5.1    35    12.4   975.9    0.00 
 267   12:50   0.81   80.9    11    5.0    18    11.1   975.8    0.00 
 267   13:00   0.80   81.1    11    5.0     5     9.2   975.7    0.00 
 267   13:10   0.79   81.2    11    5.8    38    11.0   975.6    0.00 
 267   13:20   0.77   81.2    11    4.3    71     8.6   975.4    0.00 
 267   13:30   0.75   82.2    10    5.3   326    11.6   975.4    0.00 
 267   13:40   0.73   82.1    10    5.8   348    11.6   975.3    0.00 
 267   13:50   0.71   81.8    10    5.9     6    10.9   975.3    0.00 
 267   14:00   0.68   81.8    10    5.4     3     9.9   975.1    0.00 
 267   14:10   0.66   82.8    10    3.6   351     9.6   975.1    0.00 
 267   14:20   0.63   82.9    10    5.0    56     9.6   975.0    0.00 
 267   14:30   0.60   82.5    10    5.8    47     9.0   975.0    0.00 
 267   14:40   0.57   82.5    10    6.9    30    11.1   974.9    0.00 
 267   14:50   0.55   82.5    10    4.8     1    10.1   974.8    0.00 
 267   15:00   0.52   82.5    10    3.0   100     7.2   974.7    0.00 
 267   15:10   0.48   82.7    10    5.2    15    11.2   974.7    0.00 
 267   15:20   0.45   82.9    10    2.6    19     5.6   974.6    0.00 
 267   15:30   0.42   83.1    10    2.0   346     4.7   974.6    0.00 
 267   15:40   0.38   83.4    10    4.5   259     8.8   974.5    0.00 
 267   15:50   0.35   82.9    10    5.0   263    10.7   974.6    0.00 
 267   16:00   0.31   83.1    10    4.7   253     8.1   974.6    0.00 
 267   16:10   0.27   83.1    10    2.4   324     8.5   974.6    0.00 
 267   16:20   0.24   83.0    10    5.0   351     9.3   974.5    0.00 
 267   16:30   0.20   82.6    10    4.3    20     8.1   974.4    0.00 
 267   16:40   0.06   81.6    11    3.0    43     5.0   974.4    0.00 
 267   16:50   0.03   80.6    11    2.6    37     4.8   974.4    0.00 
 267   17:00   0.02   80.5    11    3.8     0     6.9   974.4    0.00 
 267   17:10   0.01   80.3    11    3.8    30     5.6   974.4    0.00 
 267   17:20   0.01   80.0    11    3.9    25     5.6   974.3    0.00 
 267   17:30   0.01   79.7    11    4.2    14     6.0   974.3    0.00 
 267   17:40   0.00   79.3    11    2.7    14     6.3   974.3    0.00 
 267   17:50   0.00   79.0    12    4.6   347     7.5   974.2    0.00 
 267   18:00   0.00   78.7    12    4.3   352     8.2   974.3    0.00 
 267   18:10   0.00   78.4    12    4.6   343     8.1   974.4    0.00 
 267   18:20   0.00   78.1    12    4.4   344     7.3   974.5    0.00 
 267   18:30   0.00   77.9    12    3.8   340     8.1   974.6    0.00 
 267   18:40   0.00   77.9    12    1.7   334     7.0   974.7    0.00 
 267   18:50   0.00   77.3    12    4.0   358     7.2   974.8    0.00 
 267   19:00   0.00   77.2    12    1.7   359     5.4   974.9    0.00 
 267   19:10   0.00   76.4    13    2.8   218     4.6   974.9    0.00 
 267   19:20   0.00   75.2    13    3.5   216     4.6   975.0    0.00 
 267   19:30   0.00   75.7    13    4.2   222     5.8   975.1    0.00 
 267   19:40   0.00   75.6    13    6.1   210     8.8   975.2    0.00 
 267   19:50   0.00   75.6    13    7.6   202     9.9   975.3    0.00 
 267   20:00   0.00   75.2    13    7.3   206     9.7   975.3    0.00 
 267   20:10   0.00   74.9    13    8.3   203    10.9   975.5    0.00 
 267   20:20   0.00   74.7    13    8.7   202    12.1   975.6    0.00 
 267   20:30   0.00   74.5    13    8.9   198    12.3   975.7    0.00 
 267   20:40   0.00   74.4    13    8.2   200    13.3   975.8    0.00 
 267   20:50   0.00   74.5    13    5.9   200     9.7   975.9    0.00 
 267   21:00   0.00   74.3    13    6.5   202     9.7   976.0    0.00 
 267   21:10   0.00   74.0    13    8.5   196    11.6   976.0    0.00 
 267   21:20   0.00   74.1    13    8.2   203    11.9   976.0    0.00 
 267   21:30   0.00   74.0    13    8.8   202    11.7   975.9    0.00 
 267   21:40   0.00   74.1    13    8.5   210    12.2   976.0    0.00 
 267   21:50   0.00   74.0    13    8.1   209    11.9   976.0    0.00 
 267   22:00   0.00   73.8    13    8.1   207    10.9   975.9    0.00 
 267   22:10   0.00   73.7    13    9.5   208    12.6   975.9    0.00 
 267   22:20   0.00   73.9    13    9.2   206    13.3   975.9    0.00 
 267   22:30   0.00   73.7    13    9.3   204    13.2   975.9    0.00 
 267   22:40   0.00   73.6    13    9.5   202    13.2   975.8    0.00 
 267   22:50   0.00   73.5    13    9.2   208    12.8   975.9    0.00 
 267   23:00   0.00   73.2    13    7.4   202    13.2   976.0    0.00 
 267   23:10   0.00   72.7    13    8.4   202    11.5   976.1    0.00 
 267   23:20   0.00   73.0    12    8.4   202    13.6   976.1    0.00 
 267   23:30   0.00   73.3    12    7.6   202    10.6   976.1    0.00 
 267   23:40   0.00   73.0    12    8.3   196    11.4   976.0    0.00 

Return to Boyd Deep Canyon Reserve graphs page.


Western Regional Climate Center,wrcc@dri.edu